createdAt,value
2022-11-20T00:01:30.311Z,-4.99
2022-11-20T00:03:59.312Z,-5.11
2022-11-20T00:06:28.867Z,-5.09
2022-11-20T00:08:59.309Z,-5.15
2022-11-20T00:11:29.371Z,-5.24
2022-11-20T00:14:02.723Z,-5.27
2022-11-20T00:16:33.105Z,-5.32
2022-11-20T00:19:01.025Z,-5.43
2022-11-20T00:21:30.829Z,-5.48
2022-11-20T00:23:59.450Z,-5.50
2022-11-20T00:26:28.583Z,-5.49
2022-11-20T00:28:58.787Z,-5.52
2022-11-20T00:31:28.461Z,-5.65
2022-11-20T00:33:56.467Z,-5.73
2022-11-20T00:36:26.462Z,-5.79
2022-11-20T00:38:58.761Z,-5.58
2022-11-20T00:41:30.077Z,-5.52
2022-11-20T00:43:58.179Z,-5.65
2022-11-20T00:46:28.359Z,-5.86
2022-11-20T00:48:56.731Z,-5.84
2022-11-20T00:51:27.157Z,-6.04
2022-11-20T00:53:57.633Z,-6.07
2022-11-20T00:56:25.594Z,-6.15
2022-11-20T00:58:53.327Z,-6.21
2022-11-20T01:01:26.831Z,-6.19
2022-11-20T01:03:55.647Z,-6.18
2022-11-20T01:06:33.265Z,-6.09
2022-11-20T01:09:04.073Z,-6.04
2022-11-20T01:11:35.164Z,-6.08
2022-11-20T01:14:05.818Z,-6.16
2022-11-20T01:16:39.523Z,-6.05
2022-11-20T01:19:09.170Z,-6.14
2022-11-20T01:21:39.852Z,-6.20
2022-11-20T01:24:09.586Z,-6.26
2022-11-20T01:26:39.615Z,-6.40
2022-11-20T01:29:10.050Z,-6.37
2022-11-20T01:31:38.754Z,-6.41
2022-11-20T01:34:16.438Z,-6.35
2022-11-20T01:36:45.544Z,-6.35
2022-11-20T01:39:20.099Z,-6.24
2022-11-20T01:42:10.053Z,-6.12
2022-11-20T01:44:54.593Z,-6.22
2022-11-20T01:47:42.235Z,-6.14
2022-11-20T01:50:26.738Z,-6.19
2022-11-20T01:53:11.331Z,-6.27
2022-11-20T01:55:49.375Z,-6.28
2022-11-20T01:58:21.641Z,-6.13
2022-11-20T02:00:49.820Z,-6.00
2022-11-20T02:03:19.645Z,-5.90
2022-11-20T02:05:58.713Z,-5.90
2022-11-20T02:08:26.798Z,-5.70
2022-11-20T02:10:54.558Z,-5.60
2022-11-20T02:13:41.608Z,-5.38
2022-11-20T02:16:30.001Z,-5.31
2022-11-20T02:19:00.510Z,-5.02
2022-11-20T02:21:53.839Z,-5.03
2022-11-20T02:24:23.766Z,-4.94
2022-11-20T02:27:05.778Z,-4.85
2022-11-20T02:29:54.904Z,-4.98
2022-11-20T02:32:29.142Z,-4.91
2022-11-20T02:34:57.802Z,-4.81
2022-11-20T02:37:37.589Z,-5.16
2022-11-20T02:40:06.124Z,-5.24
2022-11-20T02:42:33.772Z,-5.22
2022-11-20T02:45:01.779Z,-5.47
2022-11-20T02:47:29.416Z,-5.53
2022-11-20T02:49:57.449Z,-5.66
2022-11-20T02:52:25.895Z,-5.64
2022-11-20T02:54:54.003Z,-5.54
2022-11-20T02:57:21.683Z,-5.63
2022-11-20T02:59:49.824Z,-5.74
2022-11-20T03:02:17.730Z,-5.82
2022-11-20T03:04:45.695Z,-5.75
2022-11-20T03:07:13.478Z,-5.79
2022-11-20T03:09:41.552Z,-5.84
2022-11-20T03:12:09.756Z,-5.91
2022-11-20T03:14:37.675Z,-5.87
2022-11-20T03:17:05.395Z,-5.95
2022-11-20T03:19:33.636Z,-5.94
2022-11-20T03:22:01.621Z,-6.10
2022-11-20T03:24:29.768Z,-6.13
2022-11-20T03:26:57.470Z,-6.13
2022-11-20T03:29:25.546Z,-6.22
2022-11-20T03:31:53.690Z,-6.19
2022-11-20T03:34:21.738Z,-6.27
2022-11-20T03:36:49.404Z,-6.52
2022-11-20T03:39:17.368Z,-6.51
2022-11-20T03:41:45.848Z,-6.39
2022-11-20T03:44:13.971Z,-6.25
2022-11-20T03:46:41.660Z,-6.44
2022-11-20T03:49:09.616Z,-6.58
2022-11-20T03:51:37.920Z,-6.66
2022-11-20T03:54:08.308Z,-6.41
2022-11-20T03:56:38.548Z,-6.41
2022-11-20T03:59:06.729Z,-6.25
2022-11-20T04:01:38.360Z,-6.31
2022-11-20T04:04:06.752Z,-6.41
2022-11-20T04:06:38.851Z,-6.33
2022-11-20T04:09:07.463Z,-6.35
2022-11-20T04:11:37.682Z,-6.43
2022-11-20T04:14:07.956Z,-6.50
2022-11-20T04:16:37.259Z,-6.46
2022-11-20T04:19:07.753Z,-6.31
2022-11-20T04:21:35.681Z,-6.40
2022-11-20T04:24:04.417Z,-6.46
2022-11-20T04:26:32.591Z,-6.49
2022-11-20T04:29:02.764Z,-6.74
2022-11-20T04:31:33.401Z,-6.59
2022-11-20T04:34:03.705Z,-6.64
2022-11-20T04:36:32.671Z,-6.54
2022-11-20T04:39:07.296Z,-6.63
2022-11-20T04:41:37.318Z,-6.62
2022-11-20T04:44:06.753Z,-6.59
2022-11-20T04:46:44.213Z,-6.53
2022-11-20T04:49:13.046Z,-6.62
2022-11-20T04:51:40.754Z,-6.45
2022-11-20T04:54:09.320Z,-6.43
2022-11-20T04:56:37.028Z,-6.38
2022-11-20T04:59:04.999Z,-6.46
2022-11-20T05:01:33.704Z,-6.30
2022-11-20T05:04:01.738Z,-6.30
2022-11-20T05:06:29.410Z,-6.38
2022-11-20T05:08:57.378Z,-6.58
2022-11-20T05:11:25.655Z,-6.44
2022-11-20T05:13:53.993Z,-6.50
2022-11-20T05:16:25.827Z,-6.62
2022-11-20T05:18:55.345Z,-6.60
2022-11-20T05:21:23.846Z,-6.67
2022-11-20T05:23:51.903Z,-6.73
2022-11-20T05:26:22.711Z,-6.76
2022-11-20T05:28:51.654Z,-6.61
2022-11-20T05:31:27.647Z,-6.58
2022-11-20T05:33:57.768Z,-6.61
2022-11-20T05:36:25.831Z,-6.76
2022-11-20T05:38:59.777Z,-6.84
2022-11-20T05:41:29.204Z,-6.90
2022-11-20T05:43:58.786Z,-6.66
2022-11-20T05:46:29.038Z,-6.67
2022-11-20T05:48:59.008Z,-6.75
2022-11-20T05:51:27.682Z,-6.85
2022-11-20T05:53:59.505Z,-6.94
2022-11-20T05:56:27.351Z,-6.95
2022-11-20T05:58:55.334Z,-7.03
2022-11-20T06:01:25.669Z,-6.84
2022-11-20T06:03:55.097Z,-6.87
2022-11-20T06:06:23.030Z,-6.96
2022-11-20T06:08:50.966Z,-6.78
2022-11-20T06:11:19.501Z,-6.83
2022-11-20T06:13:48.379Z,-6.93
2022-11-20T06:16:18.335Z,-6.94
2022-11-20T06:18:46.934Z,-6.85
2022-11-20T06:21:17.731Z,-6.93
2022-11-20T06:23:46.596Z,-6.82
2022-11-20T06:26:20.464Z,-6.69
2022-11-20T06:28:48.755Z,-6.78
2022-11-20T06:31:19.952Z,-6.62
2022-11-20T06:33:48.411Z,-6.62
2022-11-20T06:36:17.949Z,-6.39
2022-11-20T06:38:46.758Z,-6.30
2022-11-20T06:41:17.488Z,-5.97
2022-11-20T06:43:45.559Z,-5.59
2022-11-20T06:46:14.999Z,-5.46
2022-11-20T06:48:43.000Z,-5.34
2022-11-20T06:51:10.975Z,-5.05
2022-11-20T06:53:39.274Z,-5.15
2022-11-20T06:56:07.980Z,-5.09
2022-11-20T06:58:37.875Z,-4.50
2022-11-20T07:01:08.411Z,-3.96
2022-11-20T07:03:36.842Z,-3.88
2022-11-20T07:06:05.155Z,-3.54
2022-11-20T07:08:33.990Z,-3.33
2022-11-20T07:11:04.540Z,-2.98
2022-11-20T07:13:33.026Z,-2.73
2022-11-20T07:16:02.638Z,-2.73
2022-11-20T07:18:30.676Z,-2.47
2022-11-20T07:21:06.224Z,-2.35
2022-11-20T07:23:34.256Z,-2.18
2022-11-20T07:26:10.450Z,-1.98
2022-11-20T07:28:38.874Z,-1.99
2022-11-20T07:31:08.432Z,-2.54
2022-11-20T07:33:36.423Z,-2.46
2022-11-20T07:36:04.477Z,-2.33
2022-11-20T07:38:32.739Z,-2.51
2022-11-20T07:41:02.620Z,-2.08
2022-11-20T07:43:31.193Z,-1.69
2022-11-20T07:45:59.756Z,-1.41
2022-11-20T07:48:27.998Z,-1.47
2022-11-20T07:50:56.904Z,-1.18
2022-11-20T07:53:25.500Z,-0.97
2022-11-20T07:55:53.869Z,-0.83
2022-11-20T07:58:22.813Z,-0.46
2022-11-20T08:00:50.635Z,0.06
2022-11-20T08:03:24.314Z,-0.05
2022-11-20T08:05:52.652Z,-0.09
2022-11-20T08:08:20.984Z,0.17
2022-11-20T08:10:48.716Z,0.55
2022-11-20T08:13:35.174Z,0.87
2022-11-20T08:16:02.889Z,1.39
2022-11-20T08:18:32.553Z,1.21
2022-11-20T08:21:04.964Z,1.28
2022-11-20T08:23:33.008Z,1.45
2022-11-20T08:26:00.784Z,1.58
2022-11-20T08:28:28.761Z,1.34
2022-11-20T08:31:01.313Z,1.78
2022-11-20T08:33:30.747Z,2.07
2022-11-20T08:36:03.532Z,2.98
2022-11-20T08:38:32.218Z,4.10
2022-11-20T08:41:23.786Z,4.82
2022-11-20T08:43:53.415Z,5.12
2022-11-20T08:46:21.136Z,5.44
2022-11-20T08:48:49.439Z,6.26
2022-11-20T08:51:17.912Z,6.02
2022-11-20T08:53:46.023Z,5.81
2022-11-20T08:56:15.227Z,6.53
2022-11-20T08:59:10.301Z,7.08
2022-11-20T09:01:31.054Z,7.54
2022-11-20T09:04:00.549Z,7.93
2022-11-20T09:06:28.264Z,8.24
2022-11-20T09:08:56.470Z,8.17
2022-11-20T09:11:24.370Z,7.51
2022-11-20T09:13:52.682Z,7.83
2022-11-20T09:16:20.788Z,8.41
2022-11-20T09:18:57.818Z,8.88
2022-11-20T09:21:38.718Z,8.32
2022-11-20T09:24:07.128Z,8.04
2022-11-20T09:26:34.776Z,7.89
2022-11-20T09:29:02.875Z,7.86
2022-11-20T09:31:30.579Z,7.57
2022-11-20T09:33:58.515Z,7.85
2022-11-20T09:36:26.247Z,7.59
2022-11-20T09:38:54.893Z,7.57
2022-11-20T09:41:57.391Z,8.34
2022-11-20T09:44:43.585Z,8.99
2022-11-20T09:47:22.681Z,9.03
2022-11-20T09:50:22.717Z,9.31
2022-11-20T09:53:12.222Z,9.26
2022-11-20T09:55:40.752Z,8.88
2022-11-20T09:58:16.734Z,9.43
2022-11-20T10:00:45.543Z,8.76
2022-11-20T10:03:31.832Z,7.57
2022-11-20T10:06:03.573Z,7.30
2022-11-20T10:08:42.932Z,7.30
2022-11-20T10:11:42.567Z,6.97
2022-11-20T10:14:30.901Z,7.12
2022-11-20T10:17:22.948Z,7.87
2022-11-20T10:20:25.089Z,7.85
2022-11-20T10:23:05.711Z,7.50
2022-11-20T10:25:46.146Z,7.09
2022-11-20T10:28:59.211Z,7.35
2022-11-20T10:32:00.942Z,7.53
2022-11-20T10:35:03.982Z,6.43
2022-11-20T10:37:35.025Z,4.74
2022-11-20T10:40:32.247Z,4.08
2022-11-20T10:43:29.338Z,3.24
2022-11-20T10:46:06.251Z,2.61
2022-11-20T10:48:34.304Z,2.46
2022-11-20T10:51:21.957Z,2.28
2022-11-20T10:53:58.828Z,1.99
2022-11-20T10:56:50.110Z,2.06
2022-11-20T10:59:21.126Z,1.96
2022-11-20T11:01:49.323Z,1.66
2022-11-20T11:04:41.824Z,1.79
2022-11-20T11:07:31.695Z,1.90
2022-11-20T11:09:59.434Z,1.73
2022-11-20T11:12:29.640Z,1.78
2022-11-20T11:14:58.770Z,1.60
2022-11-20T11:17:35.003Z,1.69
2022-11-20T11:20:06.235Z,1.82
2022-11-20T11:22:52.648Z,1.71
2022-11-20T11:25:37.843Z,1.91
2022-11-20T11:28:22.717Z,1.89
2022-11-20T11:30:50.503Z,1.91
2022-11-20T11:33:26.252Z,1.95
2022-11-20T11:35:59.926Z,1.83
2022-11-20T11:38:44.302Z,1.90
2022-11-20T11:41:19.817Z,2.04
2022-11-20T11:44:16.907Z,2.02
2022-11-20T11:46:57.641Z,2.01
2022-11-20T11:49:26.083Z,1.97
2022-11-20T11:52:11.420Z,2.23
2022-11-20T11:54:43.768Z,2.10
2022-11-20T11:57:32.550Z,1.90
2022-11-20T12:00:22.747Z,1.96
2022-11-20T12:03:13.243Z,2.10
2022-11-20T12:05:44.949Z,2.08
2022-11-20T12:08:27.631Z,1.95
2022-11-20T12:11:02.083Z,1.96
2022-11-20T12:13:35.701Z,1.85
2022-11-20T12:16:05.655Z,1.83
2022-11-20T12:18:33.893Z,1.81
2022-11-20T12:21:18.904Z,1.79
2022-11-20T12:23:59.713Z,1.85
2022-11-20T12:27:04.269Z,2.03
2022-11-20T12:30:09.741Z,1.60
2022-11-20T12:32:50.070Z,1.71
2022-11-20T12:35:38.930Z,1.60
2022-11-20T12:38:13.102Z,1.61
2022-11-20T12:40:49.570Z,1.64
2022-11-20T12:43:40.599Z,1.71
2022-11-20T12:46:29.363Z,1.54
2022-11-20T12:49:28.349Z,1.65
2022-11-20T12:52:23.850Z,1.76
2022-11-20T12:55:25.724Z,1.66
2022-11-20T12:58:11.714Z,1.63
2022-11-20T13:00:58.014Z,1.79
2022-11-20T13:03:42.636Z,1.55
2022-11-20T13:06:20.190Z,1.61
2022-11-20T13:08:56.975Z,1.44
2022-11-20T13:11:41.620Z,1.39
2022-11-20T13:14:12.271Z,1.20
2022-11-20T13:17:03.316Z,1.18
2022-11-20T13:19:34.212Z,1.12
2022-11-20T13:22:02.303Z,1.03
2022-11-20T13:24:32.686Z,1.11
2022-11-20T13:27:27.200Z,1.15
2022-11-20T13:30:26.467Z,0.88
2022-11-20T13:33:24.058Z,0.95
2022-11-20T13:36:22.515Z,0.94
2022-11-20T13:38:55.851Z,0.95
2022-11-20T13:41:40.385Z,0.99
2022-11-20T13:44:16.030Z,0.80
2022-11-20T13:46:45.947Z,0.51
2022-11-20T13:49:45.772Z,0.53
2022-11-20T13:52:25.294Z,0.47
2022-11-20T13:54:59.029Z,0.53
2022-11-20T13:57:41.865Z,0.40
2022-11-20T14:00:19.309Z,0.39
2022-11-20T14:03:06.272Z,0.25
2022-11-20T14:05:50.017Z,0.30
2022-11-20T14:08:50.384Z,0.18
2022-11-20T14:11:22.261Z,0.06
2022-11-20T14:14:14.132Z,-0.07
2022-11-20T14:16:42.224Z,-0.25
2022-11-20T14:19:29.922Z,-0.35
2022-11-20T14:22:16.675Z,-0.28
2022-11-20T14:24:44.664Z,-0.49
2022-11-20T14:27:21.883Z,-0.56
2022-11-20T14:29:51.464Z,-0.34
2022-11-20T14:32:23.362Z,-0.47
2022-11-20T14:34:52.344Z,-0.34
2022-11-20T14:37:24.422Z,-0.27
2022-11-20T14:39:55.209Z,-0.30
2022-11-20T14:42:26.424Z,-0.29
2022-11-20T14:45:00.009Z,-0.35
2022-11-20T14:47:31.915Z,-0.23
2022-11-20T14:50:05.893Z,-0.32
2022-11-20T14:52:36.726Z,-0.40
2022-11-20T14:55:04.722Z,-0.19
2022-11-20T14:57:35.200Z,-0.37
2022-11-20T15:00:09.043Z,-0.40
2022-11-20T15:02:45.017Z,-0.46
2022-11-20T15:05:13.164Z,-0.50
2022-11-20T15:07:46.556Z,-0.52
2022-11-20T15:10:22.219Z,-0.65
2022-11-20T15:12:54.481Z,-0.63
2022-11-20T15:15:36.153Z,-0.72
2022-11-20T15:18:05.459Z,-0.59
2022-11-20T15:20:36.763Z,-0.64
2022-11-20T15:23:12.293Z,-0.78
2022-11-20T15:25:41.523Z,-0.81
2022-11-20T15:28:15.548Z,-0.85
2022-11-20T15:30:43.331Z,-0.95
2022-11-20T15:33:12.425Z,-0.88
2022-11-20T15:35:40.164Z,-1.01
2022-11-20T15:38:08.161Z,-0.99
2022-11-20T15:40:35.901Z,-1.07
2022-11-20T15:43:08.178Z,-0.92
2022-11-20T15:45:49.951Z,-0.93
2022-11-20T15:48:27.260Z,-0.85
2022-11-20T15:50:59.872Z,-0.70
2022-11-20T15:53:28.214Z,-0.77
2022-11-20T15:55:56.039Z,-0.71
2022-11-20T15:58:25.218Z,-0.59
2022-11-20T16:00:53.101Z,-0.56
2022-11-20T16:03:21.428Z,-0.67
2022-11-20T16:05:49.708Z,-0.69
2022-11-20T16:08:17.642Z,-0.65
2022-11-20T16:10:45.443Z,-0.59
2022-11-20T16:13:34.219Z,-0.68
2022-11-20T16:16:10.214Z,-0.66
2022-11-20T16:18:38.210Z,-0.67
2022-11-20T16:21:06.829Z,-0.75
2022-11-20T16:23:35.417Z,-0.76
2022-11-20T16:26:11.497Z,-0.58
2022-11-20T16:28:39.566Z,-0.40
2022-11-20T16:31:15.827Z,-0.39
2022-11-20T16:33:49.435Z,-0.55
2022-11-20T16:36:17.713Z,-0.45
2022-11-20T16:38:45.715Z,-0.30
2022-11-20T16:41:16.652Z,-0.34
2022-11-20T16:43:58.077Z,-0.39
2022-11-20T16:46:28.139Z,-0.52
2022-11-20T16:49:01.898Z,-0.65
2022-11-20T16:51:32.052Z,-0.98
2022-11-20T16:54:03.864Z,-0.97
2022-11-20T16:56:31.670Z,-1.22
2022-11-20T16:59:00.777Z,-1.40
2022-11-20T17:01:29.791Z,-1.58
2022-11-20T17:04:01.839Z,-1.51
2022-11-20T17:06:35.813Z,-1.59
2022-11-20T17:09:04.665Z,-1.56
2022-11-20T17:11:33.586Z,-1.57
2022-11-20T17:14:07.491Z,-1.49
2022-11-20T17:16:36.581Z,-1.45
2022-11-20T17:19:05.580Z,-1.35
2022-11-20T17:21:38.097Z,-1.36
2022-11-20T17:24:08.574Z,-1.21
2022-11-20T17:26:37.399Z,-1.18
2022-11-20T17:29:10.650Z,-1.26
2022-11-20T17:31:39.173Z,-1.24
2022-11-20T17:34:08.740Z,-1.26
2022-11-20T17:36:39.607Z,-1.25
2022-11-20T17:39:13.211Z,-1.15
2022-11-20T17:41:41.089Z,-1.19
2022-11-20T17:44:11.789Z,-1.24
2022-11-20T17:46:39.993Z,-1.30
2022-11-20T17:49:08.017Z,-1.31
2022-11-20T17:51:35.823Z,-1.14
2022-11-20T17:54:07.608Z,-1.49
2022-11-20T17:56:54.463Z,-1.59
2022-11-20T17:59:23.135Z,-1.71
2022-11-20T18:01:50.907Z,-1.71
2022-11-20T18:04:19.329Z,-1.95
2022-11-20T18:06:47.049Z,-1.78
2022-11-20T18:09:15.293Z,-2.01
2022-11-20T18:11:43.813Z,-2.08
2022-11-20T18:14:34.744Z,-2.08
2022-11-20T18:17:09.158Z,-2.19
2022-11-20T18:19:51.583Z,-2.26
2022-11-20T18:22:30.133Z,-2.30
2022-11-20T18:24:58.112Z,-2.35
2022-11-20T18:27:25.964Z,-2.35
2022-11-20T18:29:54.123Z,-2.25
2022-11-20T18:32:22.664Z,-2.48
2022-11-20T18:34:51.393Z,-2.47
2022-11-20T18:37:19.922Z,-2.49
2022-11-20T18:39:49.654Z,-2.48
2022-11-20T18:42:35.925Z,-2.66
2022-11-20T18:45:05.185Z,-2.63
2022-11-20T18:47:37.872Z,-2.88
2022-11-20T18:50:07.888Z,-2.84
2022-11-20T18:52:40.534Z,-2.86
2022-11-20T18:55:09.246Z,-2.78
2022-11-20T18:57:37.073Z,-2.89
2022-11-20T19:00:09.219Z,-3.10
2022-11-20T19:02:42.074Z,-2.92
2022-11-20T19:05:14.693Z,-2.97
2022-11-20T19:07:43.015Z,-2.74
2022-11-20T19:10:11.158Z,-2.46
2022-11-20T19:12:38.841Z,-2.36
2022-11-20T19:15:07.229Z,-2.57
2022-11-20T19:17:34.966Z,-2.35
2022-11-20T19:20:03.012Z,-2.27
2022-11-20T19:22:30.708Z,-2.20
2022-11-20T19:24:58.600Z,-2.28
2022-11-20T19:27:26.475Z,-2.24
2022-11-20T19:29:58.817Z,-2.24
2022-11-20T19:32:26.819Z,-2.21
2022-11-20T19:34:54.745Z,-2.11
2022-11-20T19:37:22.626Z,-2.06
2022-11-20T19:39:50.651Z,-1.82
2022-11-20T19:42:18.353Z,-1.94
2022-11-20T19:44:46.333Z,-1.84
2022-11-20T19:47:14.913Z,-1.77
2022-11-20T19:49:43.063Z,-1.71
2022-11-20T19:52:10.753Z,-1.59
2022-11-20T19:54:38.734Z,-1.61
2022-11-20T19:57:06.552Z,-1.54
2022-11-20T19:59:34.510Z,-1.57
2022-11-20T20:02:03.464Z,-1.55
2022-11-20T20:04:31.658Z,-1.65
2022-11-20T20:06:59.428Z,-1.49
2022-11-20T20:09:27.670Z,-1.48
2022-11-20T20:11:55.434Z,-1.38
2022-11-20T20:14:23.440Z,-1.46
2022-11-20T20:16:51.196Z,-1.25
2022-11-20T20:19:19.275Z,-1.11
2022-11-20T20:21:48.150Z,-1.15
2022-11-20T20:24:16.241Z,-1.30
2022-11-20T20:26:43.919Z,-1.40
2022-11-20T20:29:11.826Z,-1.23
2022-11-20T20:31:40.520Z,-1.15
2022-11-20T20:34:08.530Z,-1.14
2022-11-20T20:36:36.218Z,-1.19
2022-11-20T20:39:04.422Z,-1.08
2022-11-20T20:41:32.395Z,-1.18
2022-11-20T20:44:19.844Z,-1.14
2022-11-20T20:46:47.482Z,-1.22
2022-11-20T20:49:15.486Z,-1.12
2022-11-20T20:51:43.144Z,-1.12
2022-11-20T20:54:11.238Z,-1.02
2022-11-20T20:56:38.985Z,-1.20
2022-11-20T20:59:06.883Z,-0.93
2022-11-20T21:01:34.934Z,-0.92
2022-11-20T21:04:03.035Z,-1.04
2022-11-20T21:06:30.758Z,-0.75
2022-11-20T21:08:58.830Z,-0.95
2022-11-20T21:11:26.825Z,-0.86
2022-11-20T21:13:54.789Z,-0.90
2022-11-20T21:16:22.716Z,-0.93
2022-11-20T21:18:50.723Z,-1.01
2022-11-20T21:21:54.096Z,-0.85
2022-11-20T21:24:22.479Z,-0.75
2022-11-20T21:26:52.240Z,-0.74
2022-11-20T21:29:21.416Z,-0.72
2022-11-20T21:31:49.939Z,-0.69
2022-11-20T21:34:18.584Z,-0.60
2022-11-20T21:36:46.598Z,-0.85
2022-11-20T21:39:15.638Z,-0.79
2022-11-20T21:41:43.677Z,-0.83
2022-11-20T21:44:31.648Z,-0.68
2022-11-20T21:47:02.423Z,-0.79
2022-11-20T21:49:30.356Z,-0.78
2022-11-20T21:51:58.126Z,-0.70
2022-11-20T21:54:26.574Z,-0.73
2022-11-20T21:56:54.493Z,-0.81
2022-11-20T21:59:22.817Z,-0.90
2022-11-20T22:01:50.693Z,-0.77
2022-11-20T22:04:18.812Z,-0.86
2022-11-20T22:06:46.532Z,-0.97
2022-11-20T22:09:14.486Z,-0.88
2022-11-20T22:11:42.178Z,-0.86
2022-11-20T22:14:24.028Z,-0.96
2022-11-20T22:16:53.649Z,-1.07
2022-11-20T22:19:23.453Z,-1.07
2022-11-20T22:21:51.754Z,-1.17
2022-11-20T22:24:22.293Z,-1.33
2022-11-20T22:26:50.315Z,-1.30
2022-11-20T22:29:21.912Z,-1.14
2022-11-20T22:31:53.123Z,-1.31
2022-11-20T22:34:21.443Z,-1.35
2022-11-20T22:36:49.287Z,-1.32
2022-11-20T22:39:17.703Z,-1.16
2022-11-20T22:41:45.433Z,-1.35
2022-11-20T22:44:15.313Z,-1.44
2022-11-20T22:46:43.078Z,-1.67
2022-11-20T22:49:11.091Z,-1.59
2022-11-20T22:51:40.975Z,-1.71
2022-11-20T22:54:11.830Z,-1.92
2022-11-20T22:56:40.283Z,-2.01
2022-11-20T22:59:08.543Z,-2.11
2022-11-20T23:01:37.227Z,-2.24
2022-11-20T23:04:08.094Z,-2.20
2022-11-20T23:06:35.987Z,-1.98
2022-11-20T23:09:06.287Z,-2.11
2022-11-20T23:11:35.336Z,-1.97
2022-11-20T23:14:12.241Z,-2.10
2022-11-20T23:16:40.295Z,-2.16
2022-11-20T23:19:11.616Z,-2.36
2022-11-20T23:21:41.912Z,-2.17
2022-11-20T23:24:10.758Z,-2.45
2022-11-20T23:26:40.788Z,-2.67
2022-11-20T23:29:09.231Z,-2.47
2022-11-20T23:31:37.562Z,-2.55
2022-11-20T23:34:05.921Z,-2.56
2022-11-20T23:36:33.850Z,-2.70
2022-11-20T23:39:01.815Z,-2.56
2022-11-20T23:41:29.564Z,-2.72
2022-11-20T23:43:57.491Z,-2.87
2022-11-20T23:46:25.255Z,-2.89
2022-11-20T23:48:53.159Z,-2.76
2022-11-20T23:51:20.903Z,-2.96
2022-11-20T23:53:48.853Z,-3.07
2022-11-20T23:56:16.544Z,-3.09
2022-11-20T23:58:44.498Z,-3.04
